Time;durP1;ratioP1;P1;durP2;ratioP2;P2;SDS_P1;SDS_P2;PMS_P1;PMS_P2;Temp;Humidity;BMP_temperature;BMP_pressure;BME280_temperature;BME280_humidity;BME280_pressure;Samples;Min_cycle;Max_cycle;Signal;HPM_P1;HPM_P2
2023/03/03 00:01:24;;;;;;;33.15;17.23;;;3.60;99.90;;;;;;5119471;28;20031;-71
2023/03/03 00:03:50;;;;;;;32.10;17.50;;;3.70;99.90;;;;;;5102855;28;20036;-71
2023/03/03 00:06:16;;;;;;;31.00;17.40;;;3.60;99.90;;;;;;5120217;28;20314;-70
2023/03/03 00:08:42;;;;;;;31.83;16.67;;;3.60;99.90;;;;;;5119659;28;20349;-71
2023/03/03 00:11:09;;;;;;;34.05;18.15;;;3.60;99.90;;;;;;5085709;28;20031;-71
2023/03/03 00:13:52;;;;;;;35.78;18.20;;;3.60;99.90;;;;;;5102764;28;20308;-70
2023/03/03 00:16:23;;;;;;;32.97;17.42;;;3.60;99.90;;;;;;5119384;28;20070;-71
2023/03/03 00:18:50;;;;;;;32.80;18.10;;;3.70;99.90;;;;;;5120260;28;20062;-70
2023/03/03 00:21:40;;;;;;;34.03;17.88;;;3.60;99.90;;;;;;5102520;28;20042;-70
2023/03/03 00:24:36;;;;;;;35.92;18.52;;;3.60;99.90;;;;;;5119234;28;20096;-71
2023/03/03 00:27:28;;;;;;;36.90;19.23;;;3.60;99.90;;;;;;5119306;28;20052;-72
2023/03/03 00:29:59;;;;;;;34.33;17.55;;;3.60;99.90;;;;;;5119208;28;20115;-71
2023/03/03 00:32:51;;;;;;;35.63;19.17;;;3.50;99.90;;;;;;5120558;28;20088;-71
2023/03/03 00:35:38;;;;;;;38.85;19.67;;;3.60;99.90;;;;;;5119146;28;20024;-71
2023/03/03 00:38:15;;;;;;;34.63;17.95;;;3.50;99.90;;;;;;5102796;28;20047;-71
2023/03/03 00:40:41;;;;;;;38.20;19.15;;;3.50;99.90;;;;;;5102383;28;20037;-71
2023/03/03 00:43:26;;;;;;;34.75;19.10;;;3.50;99.90;;;;;;5102166;28;20027;-70
2023/03/03 00:45:56;;;;;;;37.33;19.40;;;3.40;99.90;;;;;;5118796;28;20436;-71
2023/03/03 00:48:24;;;;;;;34.03;18.35;;;3.40;99.90;;;;;;5101947;28;20028;-72
2023/03/03 00:50:53;;;;;;;39.00;20.40;;;3.30;99.90;;;;;;5101605;28;20030;-71
2023/03/03 00:53:23;;;;;;;36.83;19.63;;;3.40;99.90;;;;;;5101282;28;20036;-71
2023/03/03 00:55:51;;;;;;;39.67;19.83;;;3.40;99.90;;;;;;5118760;28;20032;-71
2023/03/03 00:58:20;;;;;;;39.25;19.58;;;3.40;99.90;;;;;;5117817;28;20031;-71
2023/03/03 01:00:53;;;;;;;40.20;21.63;;;3.30;99.90;;;;;;5101499;28;20108;-71
2023/03/03 01:03:24;;;;;;;35.65;19.45;;;3.30;99.90;;;;;;5102443;28;20027;-71
2023/03/03 01:05:52;;;;;;;39.97;20.60;;;3.30;99.90;;;;;;5118073;28;20027;-71
2023/03/03 01:08:19;;;;;;;36.78;19.38;;;3.20;99.90;;;;;;5119011;28;20031;-71
2023/03/03 01:10:52;;;;;;;38.65;19.88;;;3.20;99.90;;;;;;5118278;28;20281;-71
2023/03/03 01:13:22;;;;;;;36.50;20.20;;;3.10;99.90;;;;;;5118116;28;20051;-72
2023/03/03 01:15:49;;;;;;;38.03;20.55;;;3.10;99.90;;;;;;5118806;28;20035;-70
2023/03/03 01:18:18;;;;;;;40.58;21.17;;;3.20;99.90;;;;;;5100937;28;20030;-71
2023/03/03 01:20:45;;;;;;;38.03;20.65;;;3.20;99.90;;;;;;5118121;28;20301;-70
2023/03/03 01:23:11;;;;;;;39.83;21.33;;;3.20;99.90;;;;;;5117774;28;20098;-70
2023/03/03 01:25:37;;;;;;;39.45;20.58;;;3.20;99.90;;;;;;5118417;28;20050;-71
2023/03/03 01:28:04;;;;;;;37.95;20.23;;;3.10;99.90;;;;;;5118537;28;20323;-71
2023/03/03 01:30:30;;;;;;;41.25;21.38;;;3.10;99.90;;;;;;5117701;28;20028;-71
2023/03/03 01:32:57;;;;;;;41.42;20.90;;;3.10;99.90;;;;;;5118406;28;20030;-71
2023/03/03 01:35:23;;;;;;;40.90;21.55;;;3.00;99.90;;;;;;5100549;28;20272;-71
2023/03/03 01:37:49;;;;;;;39.67;20.73;;;3.00;99.90;;;;;;5118400;28;20061;-72
2023/03/03 01:40:21;;;;;;;40.42;20.90;;;3.10;99.90;;;;;;5117576;28;20365;-70
2023/03/03 01:42:47;;;;;;;40.60;21.13;;;3.10;99.90;;;;;;5117458;28;20038;-71
2023/03/03 01:45:16;;;;;;;39.15;20.92;;;3.10;99.90;;;;;;5117582;28;20123;-71
2023/03/03 01:48:08;;;;;;;42.05;21.80;;;3.00;99.90;;;;;;5117414;28;20070;-71
2023/03/03 01:50:44;;;;;;;38.90;20.47;;;3.00;99.90;;;;;;5112520;28;20055;-70
2023/03/03 01:53:16;;;;;;;39.00;20.67;;;3.00;99.90;;;;;;5117469;28;20083;-71
2023/03/03 01:55:44;;;;;;;41.38;21.05;;;3.00;99.90;;;;;;5100416;28;20051;-70
2023/03/03 01:58:18;;;;;;;37.42;20.23;;;3.00;99.90;;;;;;5100569;28;20127;-71
2023/03/03 02:00:49;;;;;;;40.20;20.08;;;3.00;99.90;;;;;;5118138;28;20059;-71
2023/03/03 02:03:17;;;;;;;39.92;19.77;;;2.90;99.90;;;;;;5117303;28;20035;-71
2023/03/03 02:05:46;;;;;;;41.83;20.65;;;2.80;99.90;;;;;;5117971;28;20031;-72
2023/03/03 02:08:15;;;;;;;42.35;20.88;;;2.80;99.90;;;;;;5083391;28;20038;-71
2023/03/03 02:10:45;;;;;;;41.97;20.90;;;2.80;99.90;;;;;;5100255;28;20024;-71
2023/03/03 02:13:14;;;;;;;42.70;21.92;;;2.80;99.90;;;;;;5117109;28;20088;-71
2023/03/03 02:15:40;;;;;;;42.67;21.10;;;2.80;99.90;;;;;;5117665;28;20035;-71
2023/03/03 02:18:13;;;;;;;45.28;22.25;;;2.80;99.90;;;;;;5118411;28;20044;-71
2023/03/03 02:21:03;;;;;;;43.33;21.02;;;2.80;99.90;;;;;;5099956;28;20418;-71
2023/03/03 02:23:52;;;;;;;40.35;21.42;;;2.70;99.90;;;;;;5116796;28;20390;-71
2023/03/03 02:26:22;;;;;;;41.58;20.67;;;2.70;99.90;;;;;;5116697;28;20340;-71
2023/03/03 02:28:51;;;;;;;43.00;21.48;;;2.60;99.90;;;;;;5117005;28;20024;-71
2023/03/03 02:31:20;;;;;;;42.33;22.33;;;2.60;99.90;;;;;;5099846;28;20122;-71
2023/03/03 02:33:50;;;;;;;46.35;22.85;;;2.60;99.90;;;;;;5116784;28;20157;-70
2023/03/03 02:36:21;;;;;;;42.33;21.63;;;2.70;99.90;;;;;;5117502;28;20034;-72
2023/03/03 02:39:08;;;;;;;46.10;23.42;;;2.70;99.90;;;;;;5116730;28;20046;-72
2023/03/03 02:41:59;;;;;;;47.15;23.75;;;2.70;99.90;;;;;;5117723;28;20024;-72
2023/03/03 02:44:32;;;;;;;50.65;24.45;;;2.70;99.90;;;;;;5100956;28;20049;-72
2023/03/03 02:46:59;;;;;;;50.28;23.77;;;2.80;99.90;;;;;;5099595;28;20028;-71
2023/03/03 02:49:28;;;;;;;48.33;24.00;;;2.70;99.90;;;;;;5117450;28;20295;-71
2023/03/03 02:51:54;;;;;;;50.17;24.85;;;2.70;99.90;;;;;;5099812;28;20036;-72
2023/03/03 02:54:23;;;;;;;49.45;25.00;;;2.70;99.90;;;;;;5116486;28;20129;-71
2023/03/03 02:56:50;;;;;;;50.30;25.40;;;2.90;99.90;;;;;;5116513;28;20020;-71
2023/03/03 02:59:17;;;;;;;48.05;24.92;;;2.90;99.90;;;;;;5100360;28;20108;-71
2023/03/03 03:01:47;;;;;;;50.00;25.25;;;2.90;99.90;;;;;;5100558;28;20062;-72
2023/03/03 03:04:18;;;;;;;48.72;25.40;;;2.90;99.90;;;;;;5116551;28;20058;-71
2023/03/03 03:06:47;;;;;;;48.42;24.13;;;3.00;99.90;;;;;;5116433;28;20024;-71
2023/03/03 03:09:16;;;;;;;48.78;24.63;;;2.90;99.90;;;;;;5116482;28;20030;-71
2023/03/03 03:11:42;;;;;;;49.10;25.20;;;2.90;99.90;;;;;;5099635;28;20134;-71
2023/03/03 03:14:11;;;;;;;48.50;24.50;;;2.90;99.90;;;;;;5116308;28;20066;-71
2023/03/03 03:16:37;;;;;;;45.65;23.35;;;2.90;99.90;;;;;;5116229;28;20068;-71
2023/03/03 03:19:04;;;;;;;46.17;24.30;;;3.00;99.90;;;;;;5116218;28;20042;-71
2023/03/03 03:21:31;;;;;;;49.67;25.15;;;3.00;99.90;;;;;;5099580;28;20119;-72
2023/03/03 03:23:58;;;;;;;46.45;24.77;;;3.10;99.90;;;;;;5103710;28;20036;-72
2023/03/03 03:26:24;;;;;;;47.45;25.27;;;3.20;99.90;;;;;;5086219;28;20418;-71
2023/03/03 03:28:50;;;;;;;50.15;25.42;;;3.20;99.90;;;;;;5120214;28;20051;-71
2023/03/03 03:31:17;;;;;;;43.05;24.17;;;3.30;99.90;;;;;;5103517;28;20085;-71
2023/03/03 03:33:43;;;;;;;42.40;24.60;;;3.40;99.90;;;;;;5120601;28;20027;-71
2023/03/03 03:36:10;;;;;;;43.03;23.27;;;3.40;99.90;;;;;;5103189;28;20318;-71
2023/03/03 03:38:38;;;;;;;47.10;24.35;;;3.50;99.90;;;;;;5120850;28;20101;-73
2023/03/03 03:41:06;;;;;;;43.38;24.38;;;3.60;99.90;;;;;;5103379;28;20422;-72
2023/03/03 03:43:33;;;;;;;43.03;24.10;;;3.70;99.90;;;;;;5119913;28;20452;-71
2023/03/03 03:46:00;;;;;;;43.15;24.10;;;3.70;99.90;;;;;;5119986;28;20276;-71
2023/03/03 03:48:27;;;;;;;41.47;23.20;;;3.70;99.90;;;;;;5103707;28;20027;-71
2023/03/03 03:50:54;;;;;;;39.75;22.02;;;3.70;99.90;;;;;;5119882;28;20028;-71
2023/03/03 03:53:22;;;;;;;42.50;22.80;;;3.60;99.90;;;;;;5103012;28;20123;-71
2023/03/03 03:55:48;;;;;;;40.50;21.95;;;3.60;99.90;;;;;;5120429;28;20043;-71
2023/03/03 03:58:16;;;;;;;39.60;22.85;;;3.50;99.90;;;;;;5103183;28;20055;-72
2023/03/03 04:00:46;;;;;;;42.72;23.48;;;3.50;99.90;;;;;;5103247;28;20463;-72
2023/03/03 04:03:15;;;;;;;39.53;22.00;;;3.50;99.90;;;;;;5119614;28;20106;-70
2023/03/03 04:05:43;;;;;;;39.63;22.52;;;3.40;99.90;;;;;;5103356;28;20036;-71
2023/03/03 04:08:10;;;;;;;41.78;23.15;;;3.20;99.90;;;;;;5069439;28;20027;-71
2023/03/03 04:10:38;;;;;;;38.22;21.92;;;3.20;99.90;;;;;;5119589;28;20069;-71
2023/03/03 04:13:05;;;;;;;37.63;21.45;;;3.30;99.90;;;;;;5120489;28;20023;-72
2023/03/03 04:15:31;;;;;;;41.38;22.88;;;3.30;99.90;;;;;;5086002;28;20371;-70
2023/03/03 04:17:58;;;;;;;39.00;21.00;;;3.30;99.90;;;;;;5102927;28;20023;-71
2023/03/03 04:20:25;;;;;;;41.58;22.33;;;3.20;99.90;;;;;;5085685;28;20036;-71
2023/03/03 04:22:52;;;;;;;39.22;21.55;;;3.20;99.90;;;;;;5102173;28;20038;-70
2023/03/03 04:25:18;;;;;;;41.35;21.85;;;3.20;99.90;;;;;;5118655;28;20027;-70
2023/03/03 04:27:45;;;;;;;41.53;22.10;;;3.20;99.90;;;;;;5102356;28;20036;-70
2023/03/03 04:30:14;;;;;;;38.85;21.05;;;3.20;99.90;;;;;;5085710;28;20038;-70
2023/03/03 04:32:42;;;;;;;38.05;21.92;;;3.30;99.90;;;;;;5118535;28;20326;-71
2023/03/03 04:35:10;;;;;;;43.67;22.20;;;3.20;99.90;;;;;;5101356;28;20406;-69
2023/03/03 04:37:39;;;;;;;41.80;21.85;;;3.20;99.90;;;;;;5119535;28;20356;-71
2023/03/03 04:40:08;;;;;;;40.53;21.52;;;3.30;99.90;;;;;;5118654;28;20410;-71
2023/03/03 04:42:35;;;;;;;38.33;21.05;;;3.40;99.90;;;;;;5101986;28;20023;-69
2023/03/03 04:45:03;;;;;;;41.75;22.02;;;3.40;99.90;;;;;;5119384;28;20040;-70
2023/03/03 04:47:28;;;;;;;41.30;21.85;;;3.30;99.90;;;;;;5119283;28;20050;-69
2023/03/03 04:49:54;;;;;;;42.63;22.15;;;3.20;99.90;;;;;;5118595;28;20024;-69
2023/03/03 04:52:20;;;;;;;46.30;23.15;;;3.20;99.90;;;;;;5101259;28;20054;-70
2023/03/03 04:54:46;;;;;;;45.22;23.00;;;3.10;99.90;;;;;;5118518;28;20051;-69
2023/03/03 04:57:12;;;;;;;43.78;22.75;;;3.30;99.90;;;;;;5119209;28;20302;-69
2023/03/03 04:59:38;;;;;;;47.05;22.92;;;3.40;99.90;;;;;;5101332;28;20040;-69
2023/03/03 05:02:04;;;;;;;46.88;22.77;;;3.40;99.90;;;;;;5119045;28;20381;-70
2023/03/03 05:04:30;;;;;;;46.15;23.38;;;3.50;99.90;;;;;;5118044;28;20062;-69
2023/03/03 05:06:56;;;;;;;40.35;22.55;;;3.40;99.90;;;;;;5118183;28;20032;-68
2023/03/03 05:09:22;;;;;;;44.03;23.08;;;3.30;99.90;;;;;;5101215;28;20027;-69
2023/03/03 05:11:48;;;;;;;42.72;21.67;;;3.40;99.90;;;;;;5118162;28;20024;-69
2023/03/03 05:14:14;;;;;;;45.60;23.60;;;3.40;99.90;;;;;;5118250;28;20028;-68
2023/03/03 05:16:40;;;;;;;43.40;21.35;;;3.40;99.90;;;;;;5118080;28;20032;-69
2023/03/03 05:19:06;;;;;;;46.63;23.00;;;3.30;99.90;;;;;;5118806;28;20042;-68
2023/03/03 05:21:31;;;;;;;43.15;22.17;;;3.20;99.90;;;;;;5119359;28;20379;-69
2023/03/03 05:23:57;;;;;;;44.70;22.42;;;3.20;99.90;;;;;;5118088;28;20036;-69
2023/03/03 05:26:23;;;;;;;41.72;20.70;;;3.30;99.90;;;;;;5117825;28;20046;-69
2023/03/03 05:28:49;;;;;;;41.40;21.58;;;3.30;99.90;;;;;;5117923;28;20145;-68
2023/03/03 05:31:15;;;;;;;45.03;21.50;;;3.40;99.90;;;;;;5118025;28;20343;-68
2023/03/03 05:33:40;;;;;;;42.05;21.60;;;3.40;99.90;;;;;;5119085;28;20084;-68
2023/03/03 05:36:07;;;;;;;45.72;22.35;;;3.30;99.90;;;;;;5117620;28;20043;-69
2023/03/03 05:38:32;;;;;;;46.55;21.88;;;3.30;99.90;;;;;;5118336;28;20040;-69
2023/03/03 05:40:58;;;;;;;48.15;21.88;;;3.30;99.90;;;;;;5100676;28;20032;-69
2023/03/03 05:43:24;;;;;;;41.85;21.58;;;3.20;99.90;;;;;;5067090;28;20027;-69
2023/03/03 05:45:57;;;;;;;41.50;21.70;;;3.30;99.90;;;;;;5117022;28;20042;-69
2023/03/03 05:48:23;;;;;;;40.55;20.92;;;3.20;99.90;;;;;;5100447;28;20031;-69
2023/03/03 05:50:49;;;;;;;39.17;20.25;;;3.10;99.90;;;;;;5117697;28;20043;-69
2023/03/03 05:53:15;;;;;;;37.00;19.70;;;3.10;99.90;;;;;;5117569;28;20316;-69
2023/03/03 05:55:41;;;;;;;39.22;20.60;;;3.20;99.90;;;;;;5117501;28;20057;-69
2023/03/03 05:58:07;;;;;;;39.75;20.08;;;3.40;99.90;;;;;;5117249;28;20380;-69
2023/03/03 06:00:32;;;;;;;40.97;19.67;;;3.40;99.90;;;;;;5100066;28;20088;-69
2023/03/03 06:02:58;;;;;;;38.35;19.42;;;3.50;99.90;;;;;;5100168;28;20402;-69
2023/03/03 06:05:24;;;;;;;31.08;17.45;;;3.50;99.90;;;;;;5117661;28;20307;-69
2023/03/03 06:07:50;;;;;;;37.53;19.23;;;3.50;99.90;;;;;;5100802;28;20028;-69
2023/03/03 06:10:16;;;;;;;34.20;18.35;;;3.60;99.90;;;;;;5116803;28;20028;-70
2023/03/03 06:12:46;;;;;;;33.10;17.02;;;3.60;99.90;;;;;;5100619;28;20024;-70
2023/03/03 06:15:12;;;;;;;34.90;17.77;;;3.50;99.90;;;;;;5116816;28;20030;-70
2023/03/03 06:17:37;;;;;;;34.97;17.88;;;3.60;99.90;;;;;;5118021;28;20051;-70
2023/03/03 06:20:04;;;;;;;33.10;16.45;;;3.60;99.90;;;;;;5099799;28;20045;-70
2023/03/03 06:22:30;;;;;;;34.70;16.42;;;3.60;99.90;;;;;;5116945;28;20039;-69
2023/03/03 06:24:56;;;;;;;28.25;15.80;;;3.40;99.90;;;;;;5099748;28;20032;-70
2023/03/03 06:27:22;;;;;;;26.02;15.13;;;3.50;99.90;;;;;;5117344;28;20309;-70
2023/03/03 06:29:47;;;;;;;26.92;15.40;;;3.60;99.90;;;;;;5117827;28;20023;-70
2023/03/03 06:32:13;;;;;;;26.13;14.65;;;3.70;99.90;;;;;;5083126;28;20066;-69
2023/03/03 06:34:39;;;;;;;22.73;12.13;;;3.60;99.90;;;;;;5116541;28;20032;-70
2023/03/03 06:37:05;;;;;;;22.73;12.45;;;3.20;99.90;;;;;;5116623;28;20028;-70
2023/03/03 06:39:33;;;;;;;22.65;12.77;;;3.10;99.90;;;;;;5117590;28;20027;-70
2023/03/03 06:41:58;;;;;;;25.40;13.75;;;3.10;99.90;;;;;;5117275;28;20045;-69
2023/03/03 06:44:24;;;;;;;25.65;13.95;;;3.20;99.90;;;;;;5116479;28;20032;-69
2023/03/03 06:46:50;;;;;;;25.65;13.15;;;3.10;99.90;;;;;;5116379;28;20168;-70
2023/03/03 06:49:16;;;;;;;23.67;13.02;;;3.00;99.90;;;;;;5117132;28;20050;-71
2023/03/03 06:51:44;;;;;;;23.60;13.27;;;3.00;99.90;;;;;;5116440;28;20030;-71
2023/03/03 06:54:15;;;;;;;23.63;13.02;;;3.10;99.90;;;;;;5116889;28;20047;-70
2023/03/03 06:56:42;;;;;;;27.63;13.45;;;3.20;99.90;;;;;;5116798;28;20028;-69
2023/03/03 06:59:17;;;;;;;26.23;12.85;;;3.20;99.90;;;;;;5120617;28;20046;-70
2023/03/03 07:01:44;;;;;;;26.58;13.77;;;3.10;99.90;;;;;;5121218;28;20050;-70
2023/03/03 07:04:44;;;;;;;23.48;12.57;;;2.90;99.90;;;;;;5121765;28;20317;-70
2023/03/03 07:07:21;;;;;;;26.88;13.23;;;2.90;99.90;;;;;;5087886;28;20392;-71
2023/03/03 07:09:49;;;;;;;26.65;11.95;;;3.10;99.90;;;;;;5120439;28;20045;-70
2023/03/03 07:12:24;;;;;;;24.63;13.13;;;3.20;99.90;;;;;;5121251;28;20287;-70
2023/03/03 07:15:15;;;;;;;24.48;12.77;;;3.10;99.90;;;;;;5121439;28;20344;-70
2023/03/03 07:17:47;;;;;;;24.65;12.75;;;3.20;99.90;;;;;;5121151;28;20115;-70
2023/03/03 07:20:23;;;;;;;;;;;3.40;99.90;;;;;;5120751;28;20034;-70
2023/03/03 07:22:50;;;;;;;22.20;9.80;;;3.30;99.90;;;;;;5120367;28;20278;-67
2023/03/03 07:25:32;;;;;;;26.90;13.65;;;3.70;99.90;;;;;;5120139;28;20085;-65
2023/03/03 07:28:24;;;;;;;23.38;12.63;;;4.90;99.90;;;;;;5120168;28;20024;-65
2023/03/03 07:30:51;;;;;;;23.15;12.85;;;4.70;99.90;;;;;;5120720;28;20035;-64
2023/03/03 07:33:27;;;;;;;22.45;13.05;;;4.20;99.90;;;;;;5103066;28;20405;-64
2023/03/03 07:35:56;;;;;;;24.42;13.13;;;4.10;99.90;;;;;;5120737;28;20108;-65
2023/03/03 07:38:39;;;;;;;23.38;13.32;;;3.90;99.90;;;;;;5119957;28;20039;-65
2023/03/03 07:41:22;;;;;;;22.20;12.43;;;4.00;99.90;;;;;;5119981;28;20036;-65
2023/03/03 07:44:01;;;;;;;22.33;12.15;;;4.00;99.90;;;;;;5120485;28;20123;-65
2023/03/03 07:46:42;;;;;;;24.20;12.85;;;4.20;99.90;;;;;;5119605;28;20063;-65
2023/03/03 07:49:28;;;;;;;23.07;13.20;;;4.40;99.90;;;;;;5119766;28;20287;-67
2023/03/03 07:51:56;;;;;;;24.35;13.25;;;4.30;99.90;;;;;;5119681;28;20016;-65
2023/03/03 07:54:39;;;;;;;23.60;13.10;;;4.10;99.90;;;;;;5119496;28;20043;-66
2023/03/03 07:57:13;;;;;;;;;;;4.30;99.90;;;;;;5103041;28;20126;-65
2023/03/03 07:59:51;;;;;;;26.23;14.10;;;4.30;99.90;;;;;;5102518;28;19908;-65
2023/03/03 08:02:44;;;;;;;27.30;14.20;;;4.40;99.90;;;;;;5120210;28;20036;-66
2023/03/03 08:05:33;;;;;;;27.55;14.93;;;4.20;99.90;;;;;;5120266;28;20023;-66
2023/03/03 08:08:08;;;;;;;25.65;14.35;;;4.30;99.90;;;;;;5119888;28;20033;-65
2023/03/03 08:10:37;;;;;;;29.48;14.77;;;4.50;99.90;;;;;;5119967;28;20383;-68
2023/03/03 08:13:19;;;;;;;27.48;14.85;;;4.50;99.90;;;;;;5119299;28;20024;-64
2023/03/03 08:15:57;;;;;;;24.25;14.45;;;4.60;99.90;;;;;;5119064;28;20067;-65
2023/03/03 08:18:45;;;;;;;28.10;14.88;;;4.70;99.90;;;;;;5119725;28;20039;-65
2023/03/03 08:21:13;;;;;;;28.50;15.48;;;4.90;99.90;;;;;;5118949;28;20297;-65
2023/03/03 08:23:40;;;;;;;30.63;15.20;;;4.70;99.90;;;;;;5118798;28;20040;-65
2023/03/03 08:26:06;;;;;;;30.05;15.20;;;4.70;99.90;;;;;;5119064;28;20306;-65
2023/03/03 08:28:32;;;;;;;28.02;15.13;;;4.70;99.90;;;;;;5118847;28;20046;-65
2023/03/03 08:30:58;;;;;;;29.10;14.98;;;4.80;99.90;;;;;;5101834;28;20023;-64
2023/03/03 08:33:24;;;;;;;27.90;14.98;;;4.80;99.90;;;;;;5119735;28;20019;-64
2023/03/03 08:35:50;;;;;;;28.10;15.75;;;4.50;99.90;;;;;;5084944;28;20032;-64
2023/03/03 08:38:18;;;;;;;26.02;14.38;;;4.30;99.90;;;;;;5119441;28;20446;-64
2023/03/03 08:40:45;;;;;;;26.73;13.93;;;4.40;99.90;;;;;;5101582;28;20035;-64
2023/03/03 08:43:15;;;;;;;26.77;14.30;;;4.50;99.90;;;;;;5118727;28;20043;-65
2023/03/03 08:45:45;;;;;;;30.70;14.73;;;4.40;99.90;;;;;;5118547;28;20035;-65
2023/03/03 08:48:12;;;;;;;26.92;14.35;;;4.60;99.90;;;;;;5118541;28;20024;-65
2023/03/03 08:50:38;;;;;;;28.77;14.88;;;4.60;99.90;;;;;;5119229;28;20111;-65
2023/03/03 08:53:04;;;;;;;23.65;14.20;;;4.80;99.90;;;;;;5119068;28;20040;-65
2023/03/03 08:55:30;;;;;;;24.88;13.82;;;4.80;99.90;;;;;;5118391;28;20024;-65
2023/03/03 08:57:56;;;;;;;27.08;14.57;;;4.90;99.90;;;;;;5118344;28;20032;-65
2023/03/03 09:00:22;;;;;;;31.80;14.32;;;4.90;99.90;;;;;;5101372;28;20047;-65
2023/03/03 09:02:49;;;;;;;35.72;14.18;;;4.90;99.90;;;;;;5084506;28;20023;-65
2023/03/03 09:05:16;;;;;;;22.70;13.60;;;4.90;99.90;;;;;;5118176;28;20028;-65
2023/03/03 09:07:43;;;;;;;22.67;12.52;;;5.00;99.90;;;;;;5118939;28;20054;-65
2023/03/03 09:10:12;;;;;;;25.05;12.15;;;4.90;99.90;;;;;;5118118;28;20057;-65
2023/03/03 09:12:43;;;;;;;21.88;12.65;;;5.00;99.90;;;;;;5117967;28;20043;-65
2023/03/03 09:15:32;;;;;;;22.30;11.73;;;5.00;99.90;;;;;;5119034;28;20042;-65
2023/03/03 09:18:18;;;;;;;23.67;13.23;;;5.10;99.90;;;;;;5119548;28;20383;-65
2023/03/03 09:20:47;;;;;;;20.70;12.07;;;5.10;99.90;;;;;;5117098;28;20035;-65
2023/03/03 09:23:36;;;;;;;19.80;11.75;;;5.20;99.90;;;;;;5118587;28;20314;-65
2023/03/03 09:26:21;;;;;;;21.27;12.10;;;5.30;99.90;;;;;;5118343;28;20039;-66
2023/03/03 09:28:47;;;;;;;21.63;11.85;;;5.50;99.90;;;;;;5117800;28;20089;-65
2023/03/03 09:31:37;;;;;;;21.13;12.05;;;5.20;99.90;;;;;;5100600;28;20066;-65
2023/03/03 09:34:18;;;;;;;18.23;10.93;;;5.00;99.90;;;;;;5117520;28;20023;-65
2023/03/03 09:36:44;;;;;;;20.42;11.15;;;4.90;99.90;;;;;;5117962;28;20028;-65
2023/03/03 09:39:19;;;;;;;19.40;11.27;;;4.90;99.90;;;;;;5117474;28;20036;-65
2023/03/03 09:41:57;;;;;;;19.15;10.63;;;5.10;99.90;;;;;;5117337;28;20035;-65
2023/03/03 09:44:50;;;;;;;19.70;11.00;;;5.10;99.90;;;;;;5118660;28;20039;-65
2023/03/03 09:47:35;;;;;;;18.48;10.48;;;5.40;99.90;;;;;;5117653;28;20028;-65
2023/03/03 09:50:27;;;;;;;18.20;10.43;;;5.60;99.90;;;;;;5118635;28;20020;-66
2023/03/03 09:52:53;;;;;;;20.55;12.30;;;5.90;99.90;;;;;;5100249;28;20043;-65
2023/03/03 09:55:29;;;;;;;22.17;13.00;;;6.00;99.90;;;;;;5117231;28;20050;-65
2023/03/03 09:58:13;;;;;;;19.52;11.98;;;6.50;99.90;;;;;;5100261;28;20088;-65
2023/03/03 10:01:08;;;;;;;20.95;12.23;;;6.60;99.90;;;;;;5116962;28;20027;-65
2023/03/03 10:04:02;;;;;;;21.92;12.60;;;6.60;99.90;;;;;;5115749;28;20032;-65
2023/03/03 10:06:41;;;;;;;23.15;13.48;;;6.70;99.90;;;;;;5117629;28;20026;-65
2023/03/03 10:09:44;;;;;;;21.73;13.60;;;6.80;99.90;;;;;;5117769;28;20016;-65
2023/03/03 10:12:35;;;;;;;21.10;12.73;;;6.80;99.90;;;;;;5116871;28;20131;-65
2023/03/03 10:15:10;;;;;;;23.17;13.00;;;6.90;99.90;;;;;;5099840;28;20031;-65
2023/03/03 10:17:51;;;;;;;22.00;13.00;;;6.90;99.90;;;;;;5099890;28;20055;-65
2023/03/03 10:20:17;;;;;;;20.73;11.90;;;7.00;99.90;;;;;;5116753;28;20039;-65
2023/03/03 10:23:02;;;;;;;21.17;12.23;;;7.20;99.90;;;;;;5117503;28;20077;-65
2023/03/03 10:25:49;;;;;;;22.25;12.27;;;7.60;99.90;;;;;;5116789;28;20027;-65
2023/03/03 10:28:32;;;;;;;21.15;11.93;;;7.60;99.90;;;;;;5116921;28;20024;-65
2023/03/03 10:31:28;;;;;;;21.23;11.88;;;7.50;99.90;;;;;;5117337;28;20118;-64
2023/03/03 10:33:59;;;;;;;20.10;12.35;;;7.30;99.90;;;;;;5117907;28;20119;-64
2023/03/03 10:36:34;;;;;;;21.05;13.20;;;7.20;99.90;;;;;;5117259;28;20100;-66
2023/03/03 10:39:16;;;;;;;22.00;12.65;;;7.20;99.90;;;;;;5116625;28;20039;-63
2023/03/03 10:41:42;;;;;;;;;;;7.50;99.90;;;;;;5116933;28;20344;-64
2023/03/03 10:44:50;;;;;;;17.75;11.13;;;7.20;99.90;;;;;;5117226;28;19904;-62
2023/03/03 10:47:27;;;;;;;18.42;11.50;;;7.60;99.90;;;;;;5117148;28;20312;-62
2023/03/03 10:50:11;;;;;;;18.38;11.25;;;8.10;99.90;;;;;;5116361;28;20074;-63
2023/03/03 10:52:59;;;;;;;18.98;11.48;;;8.10;99.90;;;;;;5116450;28;20354;-66
2023/03/03 10:55:38;;;;;;;20.63;11.45;;;8.30;99.90;;;;;;5117229;28;20102;-65
2023/03/03 10:58:30;;;;;;;18.58;11.38;;;8.50;99.90;;;;;;5117219;28;20080;-65
2023/03/03 11:01:34;;;;;;;20.58;11.88;;;8.80;99.90;;;;;;5116545;28;20028;-64
2023/03/03 11:04:15;;;;;;;16.83;10.88;;;8.40;99.90;;;;;;5117430;28;20019;-64
2023/03/03 11:06:57;;;;;;;19.60;11.52;;;8.30;99.90;;;;;;5116734;28;20318;-64
2023/03/03 11:09:32;;;;;;;;;;;8.10;99.90;;;;;;5116879;28;20031;-64
2023/03/03 11:12:22;;;;;;;18.48;10.73;;;8.20;99.90;;;;;;5117066;28;19918;-64
2023/03/03 11:15:21;;;;;;;15.82;10.07;;;8.00;99.90;;;;;;5099253;28;20031;-64
2023/03/03 11:18:03;;;;;;;18.15;10.57;;;8.30;99.90;;;;;;5117044;28;20099;-63
2023/03/03 11:20:37;;;;;;;17.92;10.00;;;8.40;99.90;;;;;;5116362;28;20091;-64
2023/03/03 11:23:39;;;;;;;17.63;10.75;;;8.70;99.90;;;;;;5117112;28;20039;-64
2023/03/03 11:26:27;;;;;;;17.40;9.85;;;8.80;99.90;;;;;;5093787;28;20043;-65
2023/03/03 11:29:06;;;;;;;18.35;10.30;;;8.70;99.90;;;;;;5099345;28;20314;-64
2023/03/03 11:31:52;;;;;;;15.25;9.60;;;8.90;99.90;;;;;;5116079;28;20349;-64
2023/03/03 11:34:20;;;;;;;18.85;8.32;;;9.00;99.90;;;;;;5117538;28;20040;-63
2023/03/03 11:37:21;;;;;;;14.98;8.30;;;8.70;99.90;;;;;;5116913;28;20067;-65
2023/03/03 11:39:51;;;;;;;15.23;8.60;;;8.70;99.90;;;;;;5081615;28;20043;-64
2023/03/03 11:42:40;;;;;;;14.07;8.63;;;8.60;99.90;;;;;;5099182;28;20076;-65
2023/03/03 11:45:19;;;;;;;13.32;8.23;;;8.50;99.90;;;;;;5120149;28;20099;-64
2023/03/03 11:48:17;;;;;;;14.50;8.25;;;8.50;99.90;;;;;;5120383;28;20391;-65
2023/03/03 11:50:52;;;;;;;17.77;8.45;;;7.70;99.90;;;;;;5104410;28;20295;-65
2023/03/03 11:54:06;;;;;;;14.23;7.70;;;8.00;99.90;;;;;;5119521;28;20083;-65
2023/03/03 11:56:34;;;;;;;11.25;7.20;;;8.10;99.90;;;;;;5111443;28;20046;-65
2023/03/03 11:59:34;;;;;;;12.95;7.35;;;8.10;99.90;;;;;;5119385;28;20062;-65
2023/03/03 12:02:22;;;;;;;11.65;7.35;;;8.00;99.90;;;;;;5119532;28;20027;-65
2023/03/03 12:04:49;;;;;;;10.70;7.00;;;9.00;99.90;;;;;;5119348;28;20028;-65
2023/03/03 12:08:02;;;;;;;11.43;6.90;;;9.80;99.90;;;;;;5120333;28;20035;-65
2023/03/03 12:10:48;;;;;;;11.13;6.72;;;10.80;99.90;;;;;;5061098;28;20127;-64
2023/03/03 12:14:03;;;;;;;8.93;6.07;;;11.20;99.90;;;;;;5078125;28;20167;-64
2023/03/03 12:17:22;;;;;;;13.57;6.63;;;11.60;99.90;;;;;;5027957;28;20056;-65
2023/03/03 12:20:02;;;;;;;8.95;6.40;;;11.70;99.90;;;;;;5061011;28;20028;-64
2023/03/03 12:22:34;;;;;;;9.82;6.93;;;12.90;99.90;;;;;;5061381;28;20044;-65
2023/03/03 12:25:33;;;;;;;15.48;7.43;;;13.50;99.90;;;;;;5107380;28;20051;-64
2023/03/03 12:28:05;;;;;;;10.10;7.18;;;13.00;99.90;;;;;;5119482;28;20081;-64
2023/03/03 12:30:37;;;;;;;11.35;7.18;;;12.90;99.90;;;;;;5118742;28;20032;-63
2023/03/03 12:33:06;;;;;;;9.82;7.20;;;13.00;99.90;;;;;;5118841;28;20031;-65
2023/03/03 12:35:53;;;;;;;9.18;6.50;;;12.90;99.90;;;;;;5118633;28;20066;-64
2023/03/03 12:38:47;;;;;;;10.98;6.40;;;13.20;99.90;;;;;;5118672;28;20028;-63
2023/03/03 12:41:25;;;;;;;9.15;6.00;;;13.30;99.90;;;;;;5115561;28;20116;-64
2023/03/03 12:44:07;;;;;;;8.38;6.30;;;13.10;99.90;;;;;;5119377;28;20111;-65
2023/03/03 12:46:38;;;;;;;7.85;6.07;;;13.60;99.90;;;;;;5119152;28;20448;-63
2023/03/03 12:49:04;;;;;;;8.35;6.18;;;13.80;99.90;;;;;;5118488;28;20119;-64
2023/03/03 12:51:55;;;;;;;7.90;5.90;;;13.40;99.90;;;;;;5119127;28;20063;-64
2023/03/03 12:54:39;;;;;;;10.77;5.55;;;12.60;99.90;;;;;;5117991;28;20050;-65
2023/03/03 12:57:18;;;;;;;7.35;5.40;;;13.60;99.90;;;;;;5118995;28;20336;-63
2023/03/03 13:00:03;;;;;;;11.43;5.47;;;12.90;99.90;;;;;;5119613;28;20028;-64
2023/03/03 13:02:32;;;;;;;8.65;6.10;;;13.00;99.90;;;;;;5118153;28;20031;-64
2023/03/03 13:05:16;;;;;;;10.27;6.15;;;13.30;99.90;;;;;;5101032;28;20128;-64
2023/03/03 13:08:07;;;;;;;6.50;5.45;;;13.70;99.90;;;;;;5100974;28;20038;-65
2023/03/03 13:11:13;;;;;;;8.18;6.05;;;13.60;99.90;;;;;;5100939;28;20019;-65
2023/03/03 13:13:52;;;;;;;8.75;5.75;;;13.30;99.90;;;;;;5092955;28;20039;-65